createdAt,value
2017-08-19T00:01:12.777Z,90.40
2017-08-19T00:03:41.109Z,90.40
2017-08-19T00:06:09.429Z,90.30
2017-08-19T00:08:37.772Z,90.30
2017-08-19T00:11:06.087Z,90.20
2017-08-19T00:13:34.390Z,90.20
2017-08-19T00:16:02.736Z,90.20
2017-08-19T00:18:31.050Z,90.70
2017-08-19T00:20:59.396Z,90.30
2017-08-19T00:23:27.719Z,90.20
2017-08-19T00:25:56.056Z,90.30
2017-08-19T00:28:24.369Z,90.20
2017-08-19T00:30:52.705Z,90.20
2017-08-19T00:33:21.018Z,90.20
2017-08-19T00:35:49.332Z,90.10
2017-08-19T00:38:17.656Z,90.20
2017-08-19T00:40:45.205Z,90.20
2017-08-19T00:43:13.526Z,90.40
2017-08-19T00:45:41.830Z,90.40
2017-08-19T00:48:10.167Z,90.50
2017-08-19T00:50:38.478Z,90.50
2017-08-19T00:53:06.808Z,90.40
2017-08-19T00:55:35.131Z,90.40
2017-08-19T00:58:03.481Z,90.40
2017-08-19T01:00:31.792Z,90.40
2017-08-19T01:03:00.095Z,90.40
2017-08-19T01:05:28.432Z,90.40
2017-08-19T01:07:56.750Z,90.40
2017-08-19T01:10:25.091Z,90.40
2017-08-19T01:12:53.403Z,90.40
2017-08-19T01:15:21.735Z,90.40
2017-08-19T01:17:50.043Z,90.40
2017-08-19T01:20:18.384Z,90.50
2017-08-19T01:22:46.696Z,90.50
2017-08-19T01:25:26.903Z,90.50
2017-08-19T01:27:55.218Z,90.60
2017-08-19T01:30:23.536Z,90.60
2017-08-19T01:32:51.874Z,90.50
2017-08-19T01:35:20.189Z,90.50
2017-08-19T01:37:48.531Z,90.40
2017-08-19T01:40:16.851Z,90.50
2017-08-19T01:42:45.191Z,90.50
2017-08-19T01:45:13.555Z,90.40
2017-08-19T01:47:41.891Z,90.40
2017-08-19T01:50:10.211Z,90.40
2017-08-19T01:52:38.548Z,90.40
2017-08-19T01:55:06.860Z,90.40
2017-08-19T01:57:35.168Z,90.40
2017-08-19T02:00:03.505Z,90.50
2017-08-19T02:02:31.811Z,90.50
2017-08-19T02:05:00.136Z,90.60
2017-08-19T02:07:28.445Z,90.60
2017-08-19T02:09:56.783Z,90.50
2017-08-19T02:12:25.097Z,90.60
2017-08-19T02:14:53.443Z,90.60
2017-08-19T02:17:21.756Z,90.70
2017-08-19T02:19:50.104Z,90.70
2017-08-19T02:22:18.417Z,91.10
2017-08-19T02:24:46.732Z,90.80
2017-08-19T02:27:15.064Z,90.80
2017-08-19T02:29:43.370Z,90.70
2017-08-19T02:32:11.695Z,90.60
2017-08-19T02:34:40.007Z,90.60
2017-08-19T02:37:08.345Z,90.50
2017-08-19T02:39:36.659Z,90.20
2017-08-19T02:42:04.994Z,90.40
2017-08-19T02:44:33.308Z,90.40
2017-08-19T02:47:01.636Z,90.30
2017-08-19T02:49:29.960Z,90.30
2017-08-19T02:51:58.277Z,90.30
2017-08-19T02:54:26.639Z,90.10
2017-08-19T02:56:54.956Z,90.10
2017-08-19T02:59:23.297Z,90.10
2017-08-19T03:01:51.621Z,90.00
2017-08-19T03:04:19.952Z,90.00
2017-08-19T03:06:48.265Z,89.80
2017-08-19T03:09:16.602Z,89.50
2017-08-19T03:11:44.912Z,89.40
2017-08-19T03:14:12.477Z,89.40
2017-08-19T03:16:40.793Z,89.20
2017-08-19T03:19:09.133Z,89.00
2017-08-19T03:21:37.480Z,88.60
2017-08-19T03:24:05.792Z,88.70
2017-08-19T03:26:34.128Z,88.50
2017-08-19T03:29:02.440Z,88.60
2017-08-19T03:31:30.777Z,88.60
2017-08-19T03:33:59.094Z,88.20
2017-08-19T03:36:27.423Z,87.80
2017-08-19T03:38:55.744Z,87.60
2017-08-19T03:41:24.071Z,87.20
2017-08-19T03:43:52.383Z,87.00
2017-08-19T03:46:20.756Z,87.20
2017-08-19T03:48:49.077Z,86.90
2017-08-19T03:51:17.392Z,86.70
2017-08-19T03:53:45.736Z,86.50
2017-08-19T03:56:14.043Z,86.80
2017-08-19T03:58:42.376Z,86.60
2017-08-19T04:01:10.692Z,86.50
2017-08-19T04:03:39.088Z,86.10
2017-08-19T04:06:07.403Z,85.90
2017-08-19T04:08:35.728Z,86.00
2017-08-19T04:11:04.069Z,86.00
2017-08-19T04:13:32.477Z,85.70
2017-08-19T04:16:00.807Z,86.00
2017-08-19T04:18:29.133Z,85.80
2017-08-19T04:20:57.465Z,85.80
2017-08-19T04:23:25.787Z,85.50
2017-08-19T04:25:54.123Z,85.50
2017-08-19T04:28:22.444Z,85.40
2017-08-19T04:30:50.762Z,85.00
2017-08-19T04:33:19.096Z,85.00
2017-08-19T04:35:47.416Z,85.30
2017-08-19T04:38:15.784Z,85.70
2017-08-19T04:40:44.102Z,85.70
2017-08-19T04:43:12.441Z,85.90
2017-08-19T04:45:40.743Z,86.10
2017-08-19T04:48:09.085Z,86.10
2017-08-19T04:50:37.409Z,86.10
2017-08-19T04:53:05.755Z,86.20
2017-08-19T04:55:34.067Z,86.40
2017-08-19T04:58:02.372Z,86.40
2017-08-19T05:00:30.701Z,86.10
2017-08-19T05:02:59.020Z,85.80
2017-08-19T05:05:27.360Z,85.20
2017-08-19T05:07:55.676Z,84.70
2017-08-19T05:10:24.013Z,83.50
2017-08-19T05:12:52.330Z,82.90
2017-08-19T05:15:20.668Z,82.40
2017-08-19T05:17:48.979Z,82.00
2017-08-19T05:20:17.291Z,81.90
2017-08-19T05:22:45.625Z,81.90
2017-08-19T05:25:13.949Z,81.70
2017-08-19T05:27:42.279Z,81.60
2017-08-19T05:30:10.588Z,81.60
2017-08-19T05:32:38.914Z,81.60
2017-08-19T05:35:07.227Z,81.60
2017-08-19T05:37:35.577Z,81.50
2017-08-19T05:40:03.891Z,82.00
2017-08-19T05:42:32.203Z,81.00
2017-08-19T05:45:00.551Z,80.80
2017-08-19T05:47:28.865Z,81.00
2017-08-19T05:49:57.208Z,80.10
2017-08-19T05:52:25.523Z,80.20
2017-08-19T05:54:53.896Z,80.30
2017-08-19T05:57:22.203Z,80.20
2017-08-19T05:59:50.556Z,79.90
2017-08-19T06:02:18.869Z,79.80
2017-08-19T06:04:47.186Z,79.40
2017-08-19T06:07:15.517Z,79.10
2017-08-19T06:09:43.831Z,78.60
2017-08-19T06:12:12.167Z,78.60
2017-08-19T06:14:40.480Z,77.90
2017-08-19T06:17:08.821Z,77.90
2017-08-19T06:19:37.135Z,78.10
2017-08-19T06:22:05.471Z,77.80
2017-08-19T06:24:33.791Z,77.40
2017-08-19T06:27:02.113Z,76.80
2017-08-19T06:29:30.453Z,76.10
2017-08-19T06:31:58.778Z,74.50
2017-08-19T06:34:27.127Z,74.30
2017-08-19T06:36:55.436Z,74.20
2017-08-19T06:39:23.774Z,74.90
2017-08-19T06:41:52.085Z,75.20
2017-08-19T06:44:20.429Z,75.40
2017-08-19T06:46:48.740Z,75.50
2017-08-19T06:49:17.056Z,75.60
2017-08-19T06:51:45.389Z,75.50
2017-08-19T06:54:13.699Z,75.10
2017-08-19T06:56:42.029Z,75.20
2017-08-19T06:59:10.403Z,76.00
2017-08-19T07:01:38.749Z,75.80
2017-08-19T07:04:07.064Z,75.20
2017-08-19T07:06:35.407Z,73.60
2017-08-19T07:09:03.728Z,73.30
2017-08-19T07:11:32.051Z,73.40
2017-08-19T07:14:00.368Z,73.80
2017-08-19T07:16:28.703Z,73.50
2017-08-19T07:18:57.014Z,73.20
2017-08-19T07:21:25.341Z,72.70
2017-08-19T07:23:53.660Z,72.60
2017-08-19T07:26:22.011Z,71.90
2017-08-19T07:28:50.328Z,72.40
2017-08-19T07:31:18.652Z,72.70
2017-08-19T07:33:46.989Z,72.20
2017-08-19T07:36:15.303Z,71.60
2017-08-19T07:38:43.632Z,71.20
2017-08-19T07:41:11.941Z,71.10
2017-08-19T07:43:40.271Z,71.50
2017-08-19T07:46:08.580Z,71.60
2017-08-19T07:48:36.915Z,72.10
2017-08-19T07:51:05.232Z,72.30
2017-08-19T07:53:33.559Z,72.40
2017-08-19T07:56:01.871Z,72.20
2017-08-19T07:58:30.211Z,71.90
2017-08-19T08:00:58.520Z,71.80
2017-08-19T08:03:26.867Z,71.60
2017-08-19T08:05:55.181Z,71.50
2017-08-19T08:08:23.487Z,71.90
2017-08-19T08:10:51.815Z,72.20
2017-08-19T08:13:20.136Z,71.70
2017-08-19T08:15:48.469Z,71.90
2017-08-19T08:18:16.777Z,71.70
2017-08-19T08:20:45.103Z,71.40
2017-08-19T08:23:13.404Z,70.40
2017-08-19T08:25:41.733Z,69.30
2017-08-19T08:28:10.033Z,69.80
2017-08-19T08:30:38.351Z,69.70
2017-08-19T08:33:06.688Z,70.70
2017-08-19T08:35:34.999Z,71.50
2017-08-19T08:38:03.322Z,71.10
2017-08-19T08:40:31.634Z,70.80
2017-08-19T08:42:59.964Z,70.40
2017-08-19T08:45:28.274Z,70.00
2017-08-19T08:47:56.614Z,69.60
2017-08-19T08:50:24.917Z,69.80
2017-08-19T08:52:53.259Z,69.50
2017-08-19T08:55:21.571Z,70.30
2017-08-19T08:57:49.888Z,70.20
2017-08-19T09:00:18.228Z,70.50
2017-08-19T09:02:46.540Z,70.00
2017-08-19T09:05:14.874Z,69.80
2017-08-19T09:07:43.182Z,70.00
2017-08-19T09:10:11.511Z,70.40
2017-08-19T09:12:39.811Z,69.90
2017-08-19T09:15:08.151Z,69.20
2017-08-19T09:17:36.470Z,68.80
2017-08-19T09:20:04.772Z,68.70
2017-08-19T09:22:33.098Z,66.80
2017-08-19T09:25:01.414Z,65.80
2017-08-19T09:27:29.747Z,64.80
2017-08-19T09:29:57.290Z,64.70
2017-08-19T09:32:25.625Z,65.00
2017-08-19T09:34:53.933Z,65.00
2017-08-19T09:37:22.261Z,65.40
2017-08-19T09:39:50.571Z,66.00
2017-08-19T09:42:18.913Z,67.20
2017-08-19T09:44:47.225Z,66.70
2017-08-19T09:47:15.534Z,68.30
2017-08-19T09:49:43.863Z,70.40
2017-08-19T09:52:12.197Z,71.90
2017-08-19T09:54:40.522Z,73.40
2017-08-19T09:57:08.838Z,74.30
2017-08-19T09:59:37.165Z,74.40
2017-08-19T10:02:05.473Z,74.30
2017-08-19T10:04:33.851Z,74.30
2017-08-19T10:07:02.174Z,74.70
2017-08-19T10:09:49.282Z,74.80
2017-08-19T10:12:17.628Z,75.10
2017-08-19T10:14:45.960Z,75.30
2017-08-19T10:17:14.286Z,75.10
2017-08-19T10:19:42.623Z,75.00
2017-08-19T10:22:10.927Z,74.90
2017-08-19T10:24:39.252Z,73.70
2017-08-19T10:27:07.565Z,73.70
2017-08-19T10:29:35.984Z,73.50
2017-08-19T10:32:04.308Z,72.40
2017-08-19T10:34:32.615Z,71.30
2017-08-19T10:37:00.976Z,71.60
2017-08-19T10:39:29.275Z,71.20
2017-08-19T10:41:57.611Z,71.20
2017-08-19T10:44:25.913Z,71.60
2017-08-19T10:46:54.243Z,72.70
2017-08-19T10:49:22.555Z,74.30
2017-08-19T10:51:50.886Z,74.20
2017-08-19T10:54:19.183Z,75.10
2017-08-19T10:56:47.523Z,75.50
2017-08-19T10:59:15.849Z,76.00
2017-08-19T11:01:44.154Z,74.20
2017-08-19T11:04:12.495Z,74.10
2017-08-19T11:06:40.812Z,73.60
2017-08-19T11:09:09.147Z,74.10
2017-08-19T11:11:37.466Z,74.50
2017-08-19T11:14:05.807Z,73.20
2017-08-19T11:16:34.114Z,70.80
2017-08-19T11:19:02.446Z,70.50
2017-08-19T11:21:30.753Z,69.30
2017-08-19T11:23:59.100Z,68.80
2017-08-19T11:26:27.415Z,67.90
2017-08-19T11:28:55.724Z,68.10
2017-08-19T11:31:24.057Z,67.30
2017-08-19T11:33:52.363Z,66.10
2017-08-19T11:36:20.699Z,66.40
2017-08-19T11:38:49.019Z,65.90
2017-08-19T11:41:17.349Z,64.80
2017-08-19T11:43:45.651Z,64.90
2017-08-19T11:46:13.978Z,65.90
2017-08-19T11:48:42.299Z,66.00
2017-08-19T11:51:10.638Z,65.80
2017-08-19T11:53:38.955Z,67.10
2017-08-19T11:56:07.275Z,68.50
2017-08-19T11:58:35.607Z,69.20
2017-08-19T12:01:03.912Z,70.20
2017-08-19T12:03:32.240Z,70.60
2017-08-19T12:06:00.546Z,70.90
2017-08-19T12:08:28.883Z,71.00
2017-08-19T12:10:57.191Z,68.60
2017-08-19T12:13:25.520Z,68.10
2017-08-19T12:15:53.833Z,67.80
2017-08-19T12:18:22.140Z,67.10
2017-08-19T12:20:50.475Z,67.30
2017-08-19T12:23:18.792Z,66.40
2017-08-19T12:25:47.132Z,65.00
2017-08-19T12:28:15.434Z,64.60
2017-08-19T12:30:43.772Z,65.90
2017-08-19T12:33:12.075Z,67.30
2017-08-19T12:35:40.391Z,67.60
2017-08-19T12:38:08.727Z,67.90
2017-08-19T12:40:37.032Z,68.70
2017-08-19T12:43:05.357Z,68.30
2017-08-19T12:45:33.658Z,66.50
2017-08-19T12:48:01.993Z,64.10
2017-08-19T12:50:30.305Z,63.00
2017-08-19T12:52:58.619Z,64.20
2017-08-19T12:55:26.940Z,64.10
2017-08-19T12:57:55.252Z,63.90
2017-08-19T13:00:23.580Z,63.80
2017-08-19T13:02:51.903Z,63.00
2017-08-19T13:05:20.244Z,62.10
2017-08-19T13:07:48.561Z,61.70
2017-08-19T13:10:16.866Z,60.70
2017-08-19T13:12:45.243Z,60.00
2017-08-19T13:15:13.547Z,59.10
2017-08-19T13:17:41.891Z,58.00
2017-08-19T13:20:10.190Z,56.50
2017-08-19T13:22:38.536Z,55.10
2017-08-19T13:25:06.925Z,55.00
2017-08-19T13:27:35.227Z,55.10
2017-08-19T13:30:03.552Z,54.80
2017-08-19T13:32:31.855Z,53.70
2017-08-19T13:35:00.179Z,53.80
2017-08-19T13:37:28.486Z,53.90
2017-08-19T13:39:56.812Z,55.40
2017-08-19T13:42:25.146Z,56.40
2017-08-19T13:44:53.443Z,57.20
2017-08-19T13:47:21.775Z,57.90
2017-08-19T13:49:50.080Z,59.40
2017-08-19T13:52:18.406Z,58.80
2017-08-19T13:54:46.725Z,59.10
2017-08-19T13:57:15.048Z,59.30
2017-08-19T13:59:43.361Z,59.80
2017-08-19T14:02:11.716Z,60.20
2017-08-19T14:04:40.031Z,61.50
2017-08-19T14:07:08.335Z,60.40
2017-08-19T14:09:36.708Z,59.00
2017-08-19T14:12:05.029Z,58.30
2017-08-19T14:14:33.354Z,58.70
2017-08-19T14:17:01.670Z,59.20
2017-08-19T14:19:30.002Z,58.90
2017-08-19T14:21:58.309Z,58.90
2017-08-19T14:24:26.654Z,58.10
2017-08-19T14:26:54.961Z,58.00
2017-08-19T14:29:23.267Z,58.50
2017-08-19T14:31:51.607Z,58.60
2017-08-19T14:34:19.919Z,57.50
2017-08-19T14:36:48.255Z,57.60
2017-08-19T14:39:16.560Z,57.70
2017-08-19T14:41:44.932Z,56.20
2017-08-19T14:44:13.240Z,56.60
2017-08-19T14:46:41.559Z,56.20
2017-08-19T14:49:09.887Z,56.30
2017-08-19T14:51:38.196Z,55.60
2017-08-19T14:54:06.518Z,55.50
2017-08-19T14:56:34.821Z,56.00
2017-08-19T14:59:03.178Z,54.10
2017-08-19T15:01:31.514Z,54.80
2017-08-19T15:03:59.822Z,54.00
2017-08-19T15:06:28.153Z,54.30
2017-08-19T15:08:56.462Z,55.30
2017-08-19T15:11:24.795Z,55.90
2017-08-19T15:13:53.103Z,55.70
2017-08-19T15:16:21.436Z,54.00
2017-08-19T15:18:49.741Z,53.60
2017-08-19T15:21:18.046Z,53.20
2017-08-19T15:23:46.378Z,52.30
2017-08-19T15:26:14.683Z,52.90
2017-08-19T15:28:43.005Z,53.70
2017-08-19T15:31:11.332Z,53.00
2017-08-19T15:33:39.718Z,53.40
2017-08-19T15:36:08.033Z,53.20
2017-08-19T15:38:36.343Z,53.40
2017-08-19T15:41:04.682Z,53.30
2017-08-19T15:43:33.002Z,52.00
2017-08-19T15:46:01.419Z,53.40
2017-08-19T15:48:29.722Z,54.00
2017-08-19T15:50:58.050Z,53.30
2017-08-19T15:53:26.359Z,53.70
2017-08-19T15:55:54.663Z,54.10
2017-08-19T15:58:22.991Z,54.40
2017-08-19T16:00:51.299Z,55.00
2017-08-19T16:03:19.631Z,55.30
2017-08-19T16:05:47.936Z,55.30
2017-08-19T16:08:16.249Z,55.40
2017-08-19T16:10:44.592Z,55.60
2017-08-19T16:13:12.903Z,55.30
2017-08-19T16:15:41.241Z,55.20
2017-08-19T16:18:09.553Z,55.80
2017-08-19T16:20:37.919Z,57.00
2017-08-19T16:23:06.228Z,57.90
2017-08-19T16:25:34.536Z,58.10
2017-08-19T16:28:02.875Z,58.50
2017-08-19T16:30:31.179Z,59.00
2017-08-19T16:32:59.510Z,59.50
2017-08-19T16:35:27.834Z,60.30
2017-08-19T16:37:56.186Z,61.30
2017-08-19T16:40:24.496Z,62.00
2017-08-19T16:42:52.799Z,63.40
2017-08-19T16:45:21.131Z,65.10
2017-08-19T16:47:49.440Z,65.90
2017-08-19T16:50:17.769Z,64.30
2017-08-19T16:52:46.081Z,64.70
2017-08-19T16:55:15.173Z,64.20
2017-08-19T16:57:43.489Z,65.00
2017-08-19T17:00:11.808Z,66.60
2017-08-19T17:02:40.244Z,67.20
2017-08-19T17:05:08.559Z,67.80
2017-08-19T17:07:36.892Z,69.20
2017-08-19T17:10:05.199Z,68.50
2017-08-19T17:12:33.562Z,67.00
2017-08-19T17:15:01.880Z,63.10
2017-08-19T17:17:30.198Z,59.20
2017-08-19T17:19:58.530Z,56.60
2017-08-19T17:22:26.841Z,54.90
2017-08-19T17:24:55.220Z,52.20
2017-08-19T17:27:23.524Z,51.40
2017-08-19T17:29:51.879Z,53.70
2017-08-19T17:32:20.185Z,56.10
2017-08-19T17:34:48.498Z,58.00
2017-08-19T17:37:16.823Z,59.80
2017-08-19T17:39:45.127Z,60.60
2017-08-19T17:42:13.455Z,60.00
2017-08-19T17:44:41.755Z,58.60
2017-08-19T17:47:10.104Z,57.00
2017-08-19T17:49:38.404Z,55.60
2017-08-19T17:52:06.703Z,54.30
2017-08-19T17:54:35.023Z,54.90
2017-08-19T17:57:03.334Z,56.60
2017-08-19T17:59:31.663Z,58.30
2017-08-19T18:01:59.204Z,58.30
2017-08-19T18:04:27.547Z,62.30
2017-08-19T18:06:55.867Z,64.80
2017-08-19T18:09:24.183Z,66.80
2017-08-19T18:11:52.520Z,68.60
2017-08-19T18:14:20.836Z,70.10
2017-08-19T18:16:49.158Z,71.30
2017-08-19T18:19:17.455Z,72.00
2017-08-19T18:21:45.788Z,72.60
2017-08-19T18:24:14.095Z,73.00
2017-08-19T18:26:42.407Z,73.60
2017-08-19T18:29:10.739Z,74.20
2017-08-19T18:31:39.052Z,74.80
2017-08-19T18:34:07.401Z,75.30
2017-08-19T18:36:35.711Z,75.80
2017-08-19T18:39:04.023Z,76.30
2017-08-19T18:41:32.352Z,76.70
2017-08-19T18:44:00.684Z,77.40
2017-08-19T18:46:29.011Z,78.20
2017-08-19T18:48:57.360Z,79.20
2017-08-19T18:51:25.702Z,79.40
2017-08-19T18:53:53.267Z,79.30
2017-08-19T18:56:21.579Z,80.00
2017-08-19T18:58:49.916Z,80.60
2017-08-19T19:01:18.222Z,81.30
2017-08-19T19:03:46.550Z,81.90
2017-08-19T19:06:14.852Z,82.50
2017-08-19T19:08:43.228Z,82.90
2017-08-19T19:11:11.544Z,83.40
2017-08-19T19:13:39.903Z,83.30
2017-08-19T19:16:08.208Z,83.40
2017-08-19T19:18:36.526Z,83.60
2017-08-19T19:21:04.113Z,83.60
2017-08-19T19:23:31.664Z,83.80
2017-08-19T19:26:00.001Z,84.30
2017-08-19T19:28:28.315Z,84.90
2017-08-19T19:30:56.645Z,85.10
2017-08-19T19:33:24.959Z,85.00
2017-08-19T19:35:53.283Z,85.30
2017-08-19T19:38:21.640Z,85.40
2017-08-19T19:40:49.947Z,85.50
2017-08-19T19:43:18.283Z,85.80
2017-08-19T19:45:46.596Z,86.00
2017-08-19T19:48:14.943Z,86.20
2017-08-19T19:50:43.267Z,86.10
2017-08-19T19:53:11.600Z,86.10
2017-08-19T19:55:39.915Z,86.00
2017-08-19T19:58:08.261Z,86.00
2017-08-19T20:00:36.588Z,86.10
2017-08-19T20:03:04.899Z,86.30
2017-08-19T20:05:33.237Z,86.30
2017-08-19T20:08:01.553Z,86.30
2017-08-19T20:10:29.884Z,86.30
2017-08-19T20:12:58.196Z,86.30
2017-08-19T20:15:26.523Z,86.40
2017-08-19T20:17:54.864Z,86.50
2017-08-19T20:20:23.208Z,86.40
2017-08-19T20:22:51.520Z,86.70
2017-08-19T20:25:19.876Z,86.70
2017-08-19T20:27:48.208Z,86.90
2017-08-19T20:30:16.516Z,86.80
2017-08-19T20:32:44.855Z,86.90
2017-08-19T20:35:13.164Z,86.70
2017-08-19T20:37:41.496Z,86.80
2017-08-19T20:40:09.808Z,87.00
2017-08-19T20:42:38.168Z,87.30
2017-08-19T20:45:06.485Z,87.20
2017-08-19T20:47:34.803Z,87.20
2017-08-19T20:50:03.138Z,87.30
2017-08-19T20:52:31.452Z,87.50
2017-08-19T20:54:59.788Z,87.50
2017-08-19T20:57:28.104Z,87.40
2017-08-19T20:59:56.435Z,87.60
2017-08-19T21:02:24.754Z,88.50
2017-08-19T21:04:53.079Z,87.70
2017-08-19T21:07:21.423Z,87.60
2017-08-19T21:09:49.764Z,87.50
2017-08-19T21:12:18.078Z,87.50
2017-08-19T21:14:46.394Z,87.40
2017-08-19T21:17:14.739Z,88.30
2017-08-19T21:19:43.052Z,87.40
2017-08-19T21:22:11.379Z,87.40
2017-08-19T21:24:39.693Z,87.40
2017-08-19T21:27:08.027Z,87.60
2017-08-19T21:29:36.337Z,87.60
2017-08-19T21:32:04.701Z,87.70
2017-08-19T21:34:33.019Z,87.40
2017-08-19T21:37:01.337Z,87.80
2017-08-19T21:39:29.673Z,87.80
2017-08-19T21:41:58.024Z,87.80
2017-08-19T21:44:26.350Z,87.60
2017-08-19T21:46:54.657Z,87.60
2017-08-19T21:49:22.989Z,87.80
2017-08-19T21:51:51.307Z,88.10
2017-08-19T21:54:19.649Z,88.10
2017-08-19T21:56:47.959Z,88.10
2017-08-19T21:59:16.276Z,87.70
2017-08-19T22:01:44.617Z,87.70
2017-08-19T22:04:12.932Z,87.80
2017-08-19T22:06:41.264Z,87.80
2017-08-19T22:09:09.576Z,87.70
2017-08-19T22:11:37.916Z,87.90
2017-08-19T22:14:06.231Z,88.00
2017-08-19T22:16:34.598Z,88.10
2017-08-19T22:19:02.912Z,88.00
2017-08-19T22:21:31.252Z,88.00
2017-08-19T22:23:59.592Z,88.00
2017-08-19T22:26:27.904Z,88.00
2017-08-19T22:28:56.242Z,88.00
2017-08-19T22:31:24.551Z,88.10
2017-08-19T22:33:52.892Z,87.80
2017-08-19T22:36:21.200Z,87.90
2017-08-19T22:38:49.547Z,87.80
2017-08-19T22:41:17.852Z,87.90
2017-08-19T22:43:46.168Z,87.70
2017-08-19T22:46:14.499Z,87.60
2017-08-19T22:48:42.803Z,87.70
2017-08-19T22:51:11.169Z,87.80
2017-08-19T22:53:39.480Z,87.80
2017-08-19T22:56:07.811Z,87.70
2017-08-19T22:58:36.124Z,87.70
2017-08-19T23:01:04.483Z,87.70
2017-08-19T23:03:32.814Z,87.70
2017-08-19T23:06:01.127Z,87.60
2017-08-19T23:08:29.527Z,87.80
2017-08-19T23:10:57.839Z,87.80
2017-08-19T23:13:25.405Z,87.80
2017-08-19T23:15:53.712Z,87.80
2017-08-19T23:18:22.039Z,87.80
2017-08-19T23:20:50.349Z,87.70
2017-08-19T23:23:18.690Z,87.70
2017-08-19T23:25:47.000Z,87.90
2017-08-19T23:28:15.320Z,87.80
2017-08-19T23:30:43.661Z,87.90
2017-08-19T23:33:11.981Z,88.00
2017-08-19T23:35:40.324Z,88.10
2017-08-19T23:38:08.641Z,88.30
2017-08-19T23:40:36.976Z,88.20
2017-08-19T23:43:05.292Z,88.10
2017-08-19T23:45:33.614Z,88.00
2017-08-19T23:48:01.944Z,87.80
2017-08-19T23:50:30.278Z,88.00
2017-08-19T23:52:58.611Z,88.30
2017-08-19T23:55:26.922Z,88.40
2017-08-19T23:57:55.266Z,88.50
